CheckWX is a tool to help pilots better visualize weather data.  It is not intended as a substitute for an official pre-flight weather briefing.

01:54:44 UTC

HKEL METAR
Eldoret International Airport
Eldoret, Kenya
Current

5 hours ago

HKEL 192100Z VRB01KT CAVOK 15/12 Q1025
Observed
Jul-19 @ 21:00 UTC
Wind
  • Variable at 1 KTS
Visibility
10,000+ meters
Flight Rules
VFR
Cloud Levels
  • Clear skies
Temperature
15°C / 59°F
Dewpoint
12°C / 54°F
Humidity
82%
Altimeter
30.27" Hg
Pressure
1024.92 hPa
Previous

6 hours ago

HKEL 192000Z 20003KT CAVOK 15/13 Q1025
Observed
Jul-19 @ 20:00 UTC
Wind
  • 200° at 3 KTS
Visibility
10,000+ meters
Flight Rules
VFR
Cloud Levels
  • Clear skies
Temperature
15°C / 59°F
Dewpoint
13°C / 55°F
Humidity
88%
Altimeter
30.27" Hg
Pressure
1024.92 hPa
Previous

8 hours ago

HKEL 191800Z VRB02KT 9999 FEW017CB BKN080 16/14 Q1025
Observed
Jul-19 @ 18:00 UTC
Wind
  • Variable at 2 KTS
Visibility
10,000+ meters
Flight Rules
VFR
Cloud Levels
  • Few at 1,700' AGL
  • Broken at 8,000' AGL
Temperature
16°C / 61°F
Dewpoint
14°C / 57°F
Humidity
88%
Altimeter
30.27" Hg
Pressure
1024.92 hPa